sensor_id;sensor_type;location;lat;lon;timestamp;P1;durP1;ratioP1;P2;durP2;ratioP2
54428;SDS011;40337;52.978;6.310;2022-12-19T00:01:30;39.28;;;30.15;;
54428;SDS011;40337;52.978;6.310;2022-12-19T00:03:59;40.35;;;30.15;;
54428;SDS011;40337;52.978;6.310;2022-12-19T00:06:28;41.08;;;30.10;;
54428;SDS011;40337;52.978;6.310;2022-12-19T00:08:56;41.58;;;30.70;;
54428;SDS011;40337;52.978;6.310;2022-12-19T00:11:24;39.17;;;29.63;;
54428;SDS011;40337;52.978;6.310;2022-12-19T00:13:50;40.25;;;29.48;;
54428;SDS011;40337;52.978;6.310;2022-12-19T00:16:17;38.72;;;30.42;;
54428;SDS011;40337;52.978;6.310;2022-12-19T00:18:45;42.22;;;31.17;;
54428;SDS011;40337;52.978;6.310;2022-12-19T00:21:14;39.38;;;29.45;;
54428;SDS011;40337;52.978;6.310;2022-12-19T00:23:40;39.40;;;29.65;;
54428;SDS011;40337;52.978;6.310;2022-12-19T00:28:38;39.55;;;29.83;;
54428;SDS011;40337;52.978;6.310;2022-12-19T00:31:05;38.95;;;29.10;;
54428;SDS011;40337;52.978;6.310;2022-12-19T00:33:31;38.95;;;29.65;;
54428;SDS011;40337;52.978;6.310;2022-12-19T00:36:00;41.17;;;29.88;;
54428;SDS011;40337;52.978;6.310;2022-12-19T00:38:27;40.92;;;29.88;;
54428;SDS011;40337;52.978;6.310;2022-12-19T00:40:53;41.25;;;29.98;;
54428;SDS011;40337;52.978;6.310;2022-12-19T00:43:19;40.90;;;29.83;;
54428;SDS011;40337;52.978;6.310;2022-12-19T00:45:44;40.45;;;29.85;;
54428;SDS011;40337;52.978;6.310;2022-12-19T00:48:10;39.40;;;29.40;;
54428;SDS011;40337;52.978;6.310;2022-12-19T00:50:36;40.25;;;28.90;;
54428;SDS011;40337;52.978;6.310;2022-12-19T00:53:01;38.50;;;28.90;;
54428;SDS011;40337;52.978;6.310;2022-12-19T00:55:27;39.42;;;30.38;;
54428;SDS011;40337;52.978;6.310;2022-12-19T00:57:53;40.35;;;30.10;;
54428;SDS011;40337;52.978;6.310;2022-12-19T01:00:19;41.30;;;30.27;;
54428;SDS011;40337;52.978;6.310;2022-12-19T01:02:44;39.60;;;29.33;;
54428;SDS011;40337;52.978;6.310;2022-12-19T01:05:10;39.75;;;29.05;;
54428;SDS011;40337;52.978;6.310;2022-12-19T01:07:36;40.40;;;29.55;;
54428;SDS011;40337;52.978;6.310;2022-12-19T01:10:01;40.47;;;30.65;;
54428;SDS011;40337;52.978;6.310;2022-12-19T01:12:28;38.97;;;28.73;;
54428;SDS011;40337;52.978;6.310;2022-12-19T01:15:15;39.42;;;29.27;;
54428;SDS011;40337;52.978;6.310;2022-12-19T01:17:42;39.80;;;29.42;;
54428;SDS011;40337;52.978;6.310;2022-12-19T01:20:09;39.83;;;30.10;;
54428;SDS011;40337;52.978;6.310;2022-12-19T01:22:35;41.58;;;29.80;;
54428;SDS011;40337;52.978;6.310;2022-12-19T01:25:00;40.53;;;29.23;;
54428;SDS011;40337;52.978;6.310;2022-12-19T01:27:26;40.35;;;29.92;;
54428;SDS011;40337;52.978;6.310;2022-12-19T01:29:51;40.65;;;29.33;;
54428;SDS011;40337;52.978;6.310;2022-12-19T01:32:17;39.63;;;29.80;;
54428;SDS011;40337;52.978;6.310;2022-12-19T01:34:42;38.35;;;29.00;;
54428;SDS011;40337;52.978;6.310;2022-12-19T01:37:08;39.13;;;29.27;;
54428;SDS011;40337;52.978;6.310;2022-12-19T01:39:34;39.38;;;28.98;;
54428;SDS011;40337;52.978;6.310;2022-12-19T01:41:59;39.78;;;29.30;;
54428;SDS011;40337;52.978;6.310;2022-12-19T01:44:25;41.65;;;30.10;;
54428;SDS011;40337;52.978;6.310;2022-12-19T01:46:54;40.42;;;29.42;;
54428;SDS011;40337;52.978;6.310;2022-12-19T01:49:27;43.90;;;30.40;;
54428;SDS011;40337;52.978;6.310;2022-12-19T01:51:57;40.13;;;31.17;;
54428;SDS011;40337;52.978;6.310;2022-12-19T01:54:28;47.22;;;32.72;;
54428;SDS011;40337;52.978;6.310;2022-12-19T01:56:58;45.90;;;32.60;;
54428;SDS011;40337;52.978;6.310;2022-12-19T01:59:29;48.05;;;33.70;;
54428;SDS011;40337;52.978;6.310;2022-12-19T02:02:03;48.03;;;33.55;;
54428;SDS011;40337;52.978;6.310;2022-12-19T02:04:35;47.95;;;33.00;;
54428;SDS011;40337;52.978;6.310;2022-12-19T02:07:02;50.17;;;34.88;;
54428;SDS011;40337;52.978;6.310;2022-12-19T02:09:29;49.47;;;34.65;;
54428;SDS011;40337;52.978;6.310;2022-12-19T02:11:54;53.90;;;36.03;;
54428;SDS011;40337;52.978;6.310;2022-12-19T02:14:22;52.58;;;37.10;;
54428;SDS011;40337;52.978;6.310;2022-12-19T02:16:58;52.45;;;36.45;;
54428;SDS011;40337;52.978;6.310;2022-12-19T02:22:34;54.53;;;35.92;;
54428;SDS011;40337;52.978;6.310;2022-12-19T02:33:32;57.17;;;37.65;;
54428;SDS011;40337;52.978;6.310;2022-12-19T02:36:06;53.70;;;37.97;;
54428;SDS011;40337;52.978;6.310;2022-12-19T02:38:41;55.67;;;38.72;;
54428;SDS011;40337;52.978;6.310;2022-12-19T02:44:47;56.08;;;38.53;;
54428;SDS011;40337;52.978;6.310;2022-12-19T02:47:15;56.15;;;37.47;;
54428;SDS011;40337;52.978;6.310;2022-12-19T02:49:41;54.60;;;39.25;;
54428;SDS011;40337;52.978;6.310;2022-12-19T02:52:10;55.80;;;38.30;;
54428;SDS011;40337;52.978;6.310;2022-12-19T02:54:57;57.40;;;39.00;;
54428;SDS011;40337;52.978;6.310;2022-12-19T02:57:27;57.10;;;38.35;;
54428;SDS011;40337;52.978;6.310;2022-12-19T03:00:07;57.22;;;40.03;;
54428;SDS011;40337;52.978;6.310;2022-12-19T03:05:18;59.90;;;39.30;;
54428;SDS011;40337;52.978;6.310;2022-12-19T03:07:58;62.53;;;40.95;;
54428;SDS011;40337;52.978;6.310;2022-12-19T03:10:50;58.00;;;41.22;;
54428;SDS011;40337;52.978;6.310;2022-12-19T03:13:37;63.38;;;43.25;;
54428;SDS011;40337;52.978;6.310;2022-12-19T03:16:06;63.47;;;41.47;;
54428;SDS011;40337;52.978;6.310;2022-12-19T03:18:33;63.85;;;42.40;;
54428;SDS011;40337;52.978;6.310;2022-12-19T03:21:08;59.10;;;41.00;;
54428;SDS011;40337;52.978;6.310;2022-12-19T03:23:39;66.32;;;44.60;;
54428;SDS011;40337;52.978;6.310;2022-12-19T03:26:06;65.72;;;43.53;;
54428;SDS011;40337;52.978;6.310;2022-12-19T03:28:41;70.15;;;44.40;;
54428;SDS011;40337;52.978;6.310;2022-12-19T03:31:13;68.15;;;45.42;;
54428;SDS011;40337;52.978;6.310;2022-12-19T03:33:41;67.70;;;44.85;;
54428;SDS011;40337;52.978;6.310;2022-12-19T03:36:09;66.80;;;44.13;;
54428;SDS011;40337;52.978;6.310;2022-12-19T03:38:40;63.83;;;43.20;;
54428;SDS011;40337;52.978;6.310;2022-12-19T03:41:09;72.10;;;45.13;;
54428;SDS011;40337;52.978;6.310;2022-12-19T03:43:36;67.25;;;44.35;;
54428;SDS011;40337;52.978;6.310;2022-12-19T03:46:21;66.80;;;44.85;;
54428;SDS011;40337;52.978;6.310;2022-12-19T03:48:50;70.55;;;45.35;;
54428;SDS011;40337;52.978;6.310;2022-12-19T03:51:25;67.25;;;43.58;;
54428;SDS011;40337;52.978;6.310;2022-12-19T03:53:58;68.78;;;44.38;;
54428;SDS011;40337;52.978;6.310;2022-12-19T03:56:39;70.07;;;45.17;;
54428;SDS011;40337;52.978;6.310;2022-12-19T03:59:07;66.97;;;45.22;;
54428;SDS011;40337;52.978;6.310;2022-12-19T04:01:40;72.15;;;46.35;;
54428;SDS011;40337;52.978;6.310;2022-12-19T04:04:07;69.20;;;47.13;;
54428;SDS011;40337;52.978;6.310;2022-12-19T04:06:34;72.35;;;46.33;;
54428;SDS011;40337;52.978;6.310;2022-12-19T04:09:00;68.70;;;45.50;;
54428;SDS011;40337;52.978;6.310;2022-12-19T04:11:28;76.13;;;48.75;;
54428;SDS011;40337;52.978;6.310;2022-12-19T04:14:01;70.78;;;46.42;;
54428;SDS011;40337;52.978;6.310;2022-12-19T04:16:33;73.28;;;47.33;;
54428;SDS011;40337;52.978;6.310;2022-12-19T04:19:13;72.18;;;48.40;;
54428;SDS011;40337;52.978;6.310;2022-12-19T04:25:14;77.05;;;48.75;;
54428;SDS011;40337;52.978;6.310;2022-12-19T04:27:44;72.60;;;47.85;;
54428;SDS011;40337;52.978;6.310;2022-12-19T04:30:15;79.88;;;50.97;;
54428;SDS011;40337;52.978;6.310;2022-12-19T04:32:42;75.20;;;49.13;;
54428;SDS011;40337;52.978;6.310;2022-12-19T04:35:08;78.47;;;49.83;;
54428;SDS011;40337;52.978;6.310;2022-12-19T04:37:34;72.10;;;47.58;;
54428;SDS011;40337;52.978;6.310;2022-12-19T04:40:00;77.63;;;49.25;;
54428;SDS011;40337;52.978;6.310;2022-12-19T04:42:26;73.57;;;47.60;;
54428;SDS011;40337;52.978;6.310;2022-12-19T04:44:52;75.43;;;48.00;;
54428;SDS011;40337;52.978;6.310;2022-12-19T04:47:17;75.00;;;48.65;;
54428;SDS011;40337;52.978;6.310;2022-12-19T04:49:43;75.03;;;48.28;;
54428;SDS011;40337;52.978;6.310;2022-12-19T04:52:09;73.40;;;47.75;;
54428;SDS011;40337;52.978;6.310;2022-12-19T04:54:34;72.85;;;46.95;;
54428;SDS011;40337;52.978;6.310;2022-12-19T04:57:00;75.28;;;47.63;;
54428;SDS011;40337;52.978;6.310;2022-12-19T04:59:25;75.22;;;47.28;;
54428;SDS011;40337;52.978;6.310;2022-12-19T05:01:51;77.57;;;47.58;;
54428;SDS011;40337;52.978;6.310;2022-12-19T05:04:16;75.07;;;47.08;;
54428;SDS011;40337;52.978;6.310;2022-12-19T05:06:42;72.18;;;47.95;;
54428;SDS011;40337;52.978;6.310;2022-12-19T05:09:08;70.00;;;46.78;;
54428;SDS011;40337;52.978;6.310;2022-12-19T05:11:34;75.35;;;47.65;;
54428;SDS011;40337;52.978;6.310;2022-12-19T05:14:00;80.85;;;48.95;;
54428;SDS011;40337;52.978;6.310;2022-12-19T05:16:26;70.68;;;46.58;;
54428;SDS011;40337;52.978;6.310;2022-12-19T05:18:52;75.93;;;48.17;;
54428;SDS011;40337;52.978;6.310;2022-12-19T05:21:18;68.32;;;46.80;;
54428;SDS011;40337;52.978;6.310;2022-12-19T05:23:45;78.47;;;48.58;;
54428;SDS011;40337;52.978;6.310;2022-12-19T05:26:11;76.65;;;47.65;;
54428;SDS011;40337;52.978;6.310;2022-12-19T05:28:37;67.38;;;45.20;;
54428;SDS011;40337;52.978;6.310;2022-12-19T05:33:33;75.72;;;45.65;;
54428;SDS011;40337;52.978;6.310;2022-12-19T05:35:59;73.53;;;46.78;;
54428;SDS011;40337;52.978;6.310;2022-12-19T05:38:25;68.60;;;44.65;;
54428;SDS011;40337;52.978;6.310;2022-12-19T05:40:51;66.47;;;43.33;;
54428;SDS011;40337;52.978;6.310;2022-12-19T05:43:17;65.05;;;43.00;;
54428;SDS011;40337;52.978;6.310;2022-12-19T05:45:42;65.82;;;43.03;;
54428;SDS011;40337;52.978;6.310;2022-12-19T05:48:08;69.15;;;44.47;;
54428;SDS011;40337;52.978;6.310;2022-12-19T05:50:33;66.47;;;43.15;;
54428;SDS011;40337;52.978;6.310;2022-12-19T05:52:59;60.58;;;42.33;;
54428;SDS011;40337;52.978;6.310;2022-12-19T05:55:24;62.80;;;41.75;;
54428;SDS011;40337;52.978;6.310;2022-12-19T05:57:50;67.63;;;42.00;;
54428;SDS011;40337;52.978;6.310;2022-12-19T06:00:15;64.75;;;42.88;;
54428;SDS011;40337;52.978;6.310;2022-12-19T06:02:41;60.83;;;41.05;;
54428;SDS011;40337;52.978;6.310;2022-12-19T06:05:09;61.03;;;40.08;;
54428;SDS011;40337;52.978;6.310;2022-12-19T06:07:35;60.45;;;39.72;;
54428;SDS011;40337;52.978;6.310;2022-12-19T06:10:00;56.33;;;38.55;;
54428;SDS011;40337;52.978;6.310;2022-12-19T06:12:26;56.78;;;39.08;;
54428;SDS011;40337;52.978;6.310;2022-12-19T06:14:51;58.05;;;39.00;;
54428;SDS011;40337;52.978;6.310;2022-12-19T06:17:17;62.80;;;39.17;;
54428;SDS011;40337;52.978;6.310;2022-12-19T06:19:43;54.22;;;37.03;;
54428;SDS011;40337;52.978;6.310;2022-12-19T06:22:08;57.40;;;39.55;;
54428;SDS011;40337;52.978;6.310;2022-12-19T06:24:37;48.33;;;35.65;;
54428;SDS011;40337;52.978;6.310;2022-12-19T06:27:02;50.85;;;36.28;;
54428;SDS011;40337;52.978;6.310;2022-12-19T06:29:28;51.97;;;37.08;;
54428;SDS011;40337;52.978;6.310;2022-12-19T06:31:53;53.63;;;36.55;;
54428;SDS011;40337;52.978;6.310;2022-12-19T06:34:19;53.20;;;37.10;;
54428;SDS011;40337;52.978;6.310;2022-12-19T06:36:45;51.53;;;36.03;;
54428;SDS011;40337;52.978;6.310;2022-12-19T06:39:14;51.42;;;35.50;;
54428;SDS011;40337;52.978;6.310;2022-12-19T06:41:40;49.40;;;35.08;;
54428;SDS011;40337;52.978;6.310;2022-12-19T06:44:25;48.55;;;34.80;;
54428;SDS011;40337;52.978;6.310;2022-12-19T06:46:51;51.67;;;35.17;;
54428;SDS011;40337;52.978;6.310;2022-12-19T06:49:17;47.95;;;34.22;;
54428;SDS011;40337;52.978;6.310;2022-12-19T06:51:43;50.75;;;35.00;;
54428;SDS011;40337;52.978;6.310;2022-12-19T06:54:14;51.78;;;35.05;;
54428;SDS011;40337;52.978;6.310;2022-12-19T06:56:40;48.63;;;33.63;;
54428;SDS011;40337;52.978;6.310;2022-12-19T06:59:08;49.38;;;33.72;;
54428;SDS011;40337;52.978;6.310;2022-12-19T07:01:56;47.78;;;33.30;;
54428;SDS011;40337;52.978;6.310;2022-12-19T07:04:29;44.63;;;32.28;;
54428;SDS011;40337;52.978;6.310;2022-12-19T07:07:04;47.28;;;33.50;;
54428;SDS011;40337;52.978;6.310;2022-12-19T07:09:29;43.17;;;31.42;;
54428;SDS011;40337;52.978;6.310;2022-12-19T07:11:57;43.70;;;30.70;;
54428;SDS011;40337;52.978;6.310;2022-12-19T07:14:22;38.75;;;30.02;;
54428;SDS011;40337;52.978;6.310;2022-12-19T07:16:48;42.03;;;30.10;;
54428;SDS011;40337;52.978;6.310;2022-12-19T07:19:15;38.60;;;29.83;;
54428;SDS011;40337;52.978;6.310;2022-12-19T07:21:42;44.58;;;31.30;;
54428;SDS011;40337;52.978;6.310;2022-12-19T07:24:08;38.80;;;29.02;;
54428;SDS011;40337;52.978;6.310;2022-12-19T07:26:35;43.78;;;31.90;;
54428;SDS011;40337;52.978;6.310;2022-12-19T07:29:00;40.33;;;29.95;;
54428;SDS011;40337;52.978;6.310;2022-12-19T07:31:26;40.65;;;28.90;;
54428;SDS011;40337;52.978;6.310;2022-12-19T07:33:52;38.72;;;29.65;;
54428;SDS011;40337;52.978;6.310;2022-12-19T07:36:18;40.50;;;29.90;;
54428;SDS011;40337;52.978;6.310;2022-12-19T07:38:44;38.53;;;29.08;;
54428;SDS011;40337;52.978;6.310;2022-12-19T07:41:09;39.50;;;29.33;;
54428;SDS011;40337;52.978;6.310;2022-12-19T07:43:35;41.30;;;30.63;;
54428;SDS011;40337;52.978;6.310;2022-12-19T07:46:00;40.47;;;29.73;;
54428;SDS011;40337;52.978;6.310;2022-12-19T07:48:26;38.83;;;29.55;;
54428;SDS011;40337;52.978;6.310;2022-12-19T07:50:52;39.45;;;29.58;;
54428;SDS011;40337;52.978;6.310;2022-12-19T07:53:18;39.90;;;29.27;;
54428;SDS011;40337;52.978;6.310;2022-12-19T07:55:45;41.30;;;29.25;;
54428;SDS011;40337;52.978;6.310;2022-12-19T07:58:14;39.80;;;29.33;;
54428;SDS011;40337;52.978;6.310;2022-12-19T08:00:40;40.90;;;28.77;;
54428;SDS011;40337;52.978;6.310;2022-12-19T08:03:06;38.08;;;28.35;;
54428;SDS011;40337;52.978;6.310;2022-12-19T08:05:31;39.80;;;28.90;;
54428;SDS011;40337;52.978;6.310;2022-12-19T08:07:58;36.70;;;27.55;;
54428;SDS011;40337;52.978;6.310;2022-12-19T08:10:23;36.03;;;27.90;;
54428;SDS011;40337;52.978;6.310;2022-12-19T08:12:49;35.40;;;27.10;;
54428;SDS011;40337;52.978;6.310;2022-12-19T08:15:15;33.70;;;26.77;;
54428;SDS011;40337;52.978;6.310;2022-12-19T08:17:41;35.03;;;27.15;;
54428;SDS011;40337;52.978;6.310;2022-12-19T08:20:07;35.95;;;27.90;;
54428;SDS011;40337;52.978;6.310;2022-12-19T08:22:33;34.00;;;26.98;;
54428;SDS011;40337;52.978;6.310;2022-12-19T08:24:58;30.42;;;25.45;;
54428;SDS011;40337;52.978;6.310;2022-12-19T08:27:25;33.50;;;26.10;;
54428;SDS011;40337;52.978;6.310;2022-12-19T08:29:50;29.33;;;25.38;;
54428;SDS011;40337;52.978;6.310;2022-12-19T08:32:16;30.58;;;25.58;;
54428;SDS011;40337;52.978;6.310;2022-12-19T08:34:42;28.08;;;24.73;;
54428;SDS011;40337;52.978;6.310;2022-12-19T08:37:07;28.58;;;24.63;;
54428;SDS011;40337;52.978;6.310;2022-12-19T08:39:33;30.35;;;25.23;;
54428;SDS011;40337;52.978;6.310;2022-12-19T08:41:59;31.50;;;25.38;;
54428;SDS011;40337;52.978;6.310;2022-12-19T08:44:25;30.08;;;25.08;;
54428;SDS011;40337;52.978;6.310;2022-12-19T08:46:50;27.85;;;23.92;;
54428;SDS011;40337;52.978;6.310;2022-12-19T08:49:16;28.17;;;24.27;;
54428;SDS011;40337;52.978;6.310;2022-12-19T08:51:43;25.90;;;23.00;;
54428;SDS011;40337;52.978;6.310;2022-12-19T08:54:08;27.85;;;24.05;;
54428;SDS011;40337;52.978;6.310;2022-12-19T08:56:34;27.77;;;24.23;;
54428;SDS011;40337;52.978;6.310;2022-12-19T08:59:00;27.92;;;24.17;;
54428;SDS011;40337;52.978;6.310;2022-12-19T09:01:25;28.00;;;24.55;;
54428;SDS011;40337;52.978;6.310;2022-12-19T09:03:51;29.80;;;24.65;;
54428;SDS011;40337;52.978;6.310;2022-12-19T09:06:16;28.10;;;24.48;;
54428;SDS011;40337;52.978;6.310;2022-12-19T09:08:42;32.40;;;25.70;;
54428;SDS011;40337;52.978;6.310;2022-12-19T09:13:35;33.33;;;27.73;;
54428;SDS011;40337;52.978;6.310;2022-12-19T09:18:44;31.33;;;27.27;;
54428;SDS011;40337;52.978;6.310;2022-12-19T09:21:10;32.15;;;26.80;;
54428;SDS011;40337;52.978;6.310;2022-12-19T09:23:38;33.50;;;27.55;;
54428;SDS011;40337;52.978;6.310;2022-12-19T09:26:05;31.05;;;27.67;;
54428;SDS011;40337;52.978;6.310;2022-12-19T09:28:32;32.83;;;28.25;;
54428;SDS011;40337;52.978;6.310;2022-12-19T09:31:05;33.65;;;28.40;;
54428;SDS011;40337;52.978;6.310;2022-12-19T09:33:34;32.53;;;27.85;;
54428;SDS011;40337;52.978;6.310;2022-12-19T09:36:00;34.17;;;27.98;;
54428;SDS011;40337;52.978;6.310;2022-12-19T09:38:27;35.08;;;28.92;;
54428;SDS011;40337;52.978;6.310;2022-12-19T09:46:38;33.15;;;27.65;;
54428;SDS011;40337;52.978;6.310;2022-12-19T09:49:35;31.10;;;27.40;;
54428;SDS011;40337;52.978;6.310;2022-12-19T09:52:13;30.85;;;27.55;;
54428;SDS011;40337;52.978;6.310;2022-12-19T09:54:44;32.92;;;28.13;;
54428;SDS011;40337;52.978;6.310;2022-12-19T10:00:21;30.10;;;26.23;;
54428;SDS011;40337;52.978;6.310;2022-12-19T10:03:02;29.13;;;25.38;;
54428;SDS011;40337;52.978;6.310;2022-12-19T10:08:33;30.23;;;26.88;;
54428;SDS011;40337;52.978;6.310;2022-12-19T10:11:26;30.33;;;26.10;;
54428;SDS011;40337;52.978;6.310;2022-12-19T10:14:24;29.55;;;25.50;;
54428;SDS011;40337;52.978;6.310;2022-12-19T10:28:05;23.80;;;21.30;;
54428;SDS011;40337;52.978;6.310;2022-12-19T10:30:55;23.98;;;21.15;;
54428;SDS011;40337;52.978;6.310;2022-12-19T10:33:49;23.15;;;20.80;;
54428;SDS011;40337;52.978;6.310;2022-12-19T10:38:53;22.02;;;19.52;;
54428;SDS011;40337;52.978;6.310;2022-12-19T10:41:27;24.08;;;21.45;;
54428;SDS011;40337;52.978;6.310;2022-12-19T10:44:00;22.98;;;20.17;;
54428;SDS011;40337;52.978;6.310;2022-12-19T10:49:15;21.77;;;19.58;;
54428;SDS011;40337;52.978;6.310;2022-12-19T10:51:51;21.17;;;19.00;;
54428;SDS011;40337;52.978;6.310;2022-12-19T10:54:21;20.70;;;17.77;;
54428;SDS011;40337;52.978;6.310;2022-12-19T10:56:47;19.83;;;17.73;;
54428;SDS011;40337;52.978;6.310;2022-12-19T10:59:17;21.83;;;18.52;;
54428;SDS011;40337;52.978;6.310;2022-12-19T11:01:44;20.23;;;18.13;;
54428;SDS011;40337;52.978;6.310;2022-12-19T11:04:32;19.10;;;17.08;;
54428;SDS011;40337;52.978;6.310;2022-12-19T11:07:03;20.77;;;17.45;;
54428;SDS011;40337;52.978;6.310;2022-12-19T11:09:40;18.88;;;16.73;;
54428;SDS011;40337;52.978;6.310;2022-12-19T11:14:35;20.20;;;17.75;;
54428;SDS011;40337;52.978;6.310;2022-12-19T11:17:03;19.08;;;17.17;;
54428;SDS011;40337;52.978;6.310;2022-12-19T11:19:30;19.50;;;17.33;;
54428;SDS011;40337;52.978;6.310;2022-12-19T11:22:04;19.77;;;17.67;;
54428;SDS011;40337;52.978;6.310;2022-12-19T11:24:39;18.50;;;16.42;;
54428;SDS011;40337;52.978;6.310;2022-12-19T11:30:07;18.70;;;15.93;;
54428;SDS011;40337;52.978;6.310;2022-12-19T11:32:40;17.55;;;15.75;;
54428;SDS011;40337;52.978;6.310;2022-12-19T11:37:59;17.17;;;15.38;;
54428;SDS011;40337;52.978;6.310;2022-12-19T11:40:30;16.75;;;14.95;;
54428;SDS011;40337;52.978;6.310;2022-12-19T11:48:23;16.63;;;14.93;;
54428;SDS011;40337;52.978;6.310;2022-12-19T11:53:57;16.48;;;14.70;;
54428;SDS011;40337;52.978;6.310;2022-12-19T11:56:38;15.20;;;13.50;;
54428;SDS011;40337;52.978;6.310;2022-12-19T11:59:10;15.73;;;14.13;;
54428;SDS011;40337;52.978;6.310;2022-12-19T12:01:45;15.25;;;13.63;;
54428;SDS011;40337;52.978;6.310;2022-12-19T12:04:49;15.45;;;13.63;;
54428;SDS011;40337;52.978;6.310;2022-12-19T12:07:36;15.43;;;13.82;;
54428;SDS011;40337;52.978;6.310;2022-12-19T12:10:15;15.25;;;13.60;;
54428;SDS011;40337;52.978;6.310;2022-12-19T12:12:50;14.73;;;12.30;;
54428;SDS011;40337;52.978;6.310;2022-12-19T12:16:03;14.75;;;13.10;;
54428;SDS011;40337;52.978;6.310;2022-12-19T12:18:54;13.27;;;11.80;;
54428;SDS011;40337;52.978;6.310;2022-12-19T12:24:02;14.63;;;13.07;;
54428;SDS011;40337;52.978;6.310;2022-12-19T12:32:39;12.88;;;11.57;;
54428;SDS011;40337;52.978;6.310;2022-12-19T12:43:11;13.33;;;11.27;;
54428;SDS011;40337;52.978;6.310;2022-12-19T12:45:52;13.73;;;11.23;;
54428;SDS011;40337;52.978;6.310;2022-12-19T12:50:50;12.88;;;11.43;;
54428;SDS011;40337;52.978;6.310;2022-12-19T12:53:18;13.80;;;11.73;;
54428;SDS011;40337;52.978;6.310;2022-12-19T12:55:47;13.15;;;11.80;;
54428;SDS011;40337;52.978;6.310;2022-12-19T12:58:40;13.70;;;12.27;;
54428;SDS011;40337;52.978;6.310;2022-12-19T13:06:26;13.63;;;12.23;;
54428;SDS011;40337;52.978;6.310;2022-12-19T13:09:03;14.10;;;12.60;;
54428;SDS011;40337;52.978;6.310;2022-12-19T13:14:49;14.98;;;12.90;;
54428;SDS011;40337;52.978;6.310;2022-12-19T13:24:54;15.60;;;13.77;;
54428;SDS011;40337;52.978;6.310;2022-12-19T13:29:52;16.80;;;15.10;;
54428;SDS011;40337;52.978;6.310;2022-12-19T13:35:29;17.42;;;15.50;;
54428;SDS011;40337;52.978;6.310;2022-12-19T13:40:56;18.57;;;16.77;;
54428;SDS011;40337;52.978;6.310;2022-12-19T13:43:36;18.00;;;15.98;;
54428;SDS011;40337;52.978;6.310;2022-12-19T13:49:03;16.02;;;14.50;;
54428;SDS011;40337;52.978;6.310;2022-12-19T13:52:16;16.30;;;14.65;;
54428;SDS011;40337;52.978;6.310;2022-12-19T13:54:35;15.57;;;13.98;;
54428;SDS011;40337;52.978;6.310;2022-12-19T13:57:19;15.30;;;13.68;;
54428;SDS011;40337;52.978;6.310;2022-12-19T13:59:46;14.65;;;12.85;;
54428;SDS011;40337;52.978;6.310;2022-12-19T14:02:14;13.32;;;12.02;;
54428;SDS011;40337;52.978;6.310;2022-12-19T14:04:43;14.25;;;12.18;;
54428;SDS011;40337;52.978;6.310;2022-12-19T14:09:57;13.57;;;12.10;;
54428;SDS011;40337;52.978;6.310;2022-12-19T14:12:25;12.13;;;10.85;;
54428;SDS011;40337;52.978;6.310;2022-12-19T14:18:01;11.93;;;10.63;;
54428;SDS011;40337;52.978;6.310;2022-12-19T14:20:39;11.45;;;10.27;;
54428;SDS011;40337;52.978;6.310;2022-12-19T14:23:05;11.50;;;9.98;;
54428;SDS011;40337;52.978;6.310;2022-12-19T14:28:03;13.07;;;9.32;;
54428;SDS011;40337;52.978;6.310;2022-12-19T14:30:32;10.13;;;9.13;;
54428;SDS011;40337;52.978;6.310;2022-12-19T14:33:12;10.07;;;8.60;;
54428;SDS011;40337;52.978;6.310;2022-12-19T14:35:44;9.77;;;8.25;;
54428;SDS011;40337;52.978;6.310;2022-12-19T14:38:20;9.13;;;8.05;;
54428;SDS011;40337;52.978;6.310;2022-12-19T14:40:49;11.10;;;8.07;;
54428;SDS011;40337;52.978;6.310;2022-12-19T14:43:28;8.70;;;7.65;;
54428;SDS011;40337;52.978;6.310;2022-12-19T14:48:57;9.55;;;7.78;;
54428;SDS011;40337;52.978;6.310;2022-12-19T14:56:33;9.07;;;7.53;;
54428;SDS011;40337;52.978;6.310;2022-12-19T15:01:58;9.32;;;7.93;;
54428;SDS011;40337;52.978;6.310;2022-12-19T15:04:25;12.48;;;8.15;;
54428;SDS011;40337;52.978;6.310;2022-12-19T15:06:55;8.65;;;7.45;;
54428;SDS011;40337;52.978;6.310;2022-12-19T15:09:23;10.50;;;8.23;;
54428;SDS011;40337;52.978;6.310;2022-12-19T15:11:54;9.05;;;7.88;;
54428;SDS011;40337;52.978;6.310;2022-12-19T15:14:46;10.03;;;8.13;;
54428;SDS011;40337;52.978;6.310;2022-12-19T15:19:42;10.75;;;8.48;;
54428;SDS011;40337;52.978;6.310;2022-12-19T15:22:08;10.48;;;8.38;;
54428;SDS011;40337;52.978;6.310;2022-12-19T15:24:34;10.30;;;8.70;;
54428;SDS011;40337;52.978;6.310;2022-12-19T15:26:59;9.68;;;8.07;;
54428;SDS011;40337;52.978;6.310;2022-12-19T15:29:25;9.50;;;8.02;;
54428;SDS011;40337;52.978;6.310;2022-12-19T15:31:51;11.45;;;8.13;;
54428;SDS011;40337;52.978;6.310;2022-12-19T15:34:22;11.38;;;8.63;;
54428;SDS011;40337;52.978;6.310;2022-12-19T15:36:55;8.77;;;7.80;;
54428;SDS011;40337;52.978;6.310;2022-12-19T15:39:21;9.90;;;8.00;;
54428;SDS011;40337;52.978;6.310;2022-12-19T15:41:52;9.43;;;8.30;;
54428;SDS011;40337;52.978;6.310;2022-12-19T15:46:59;9.40;;;7.93;;
54428;SDS011;40337;52.978;6.310;2022-12-19T15:49:25;10.30;;;8.27;;
54428;SDS011;40337;52.978;6.310;2022-12-19T15:51:51;9.57;;;8.50;;
54428;SDS011;40337;52.978;6.310;2022-12-19T15:54:16;11.85;;;9.00;;
54428;SDS011;40337;52.978;6.310;2022-12-19T15:56:43;9.80;;;8.80;;
54428;SDS011;40337;52.978;6.310;2022-12-19T15:59:31;10.48;;;9.38;;
54428;SDS011;40337;52.978;6.310;2022-12-19T16:02:12;11.40;;;9.68;;
54428;SDS011;40337;52.978;6.310;2022-12-19T16:04:44;12.43;;;10.18;;
54428;SDS011;40337;52.978;6.310;2022-12-19T16:07:15;11.52;;;10.32;;
54428;SDS011;40337;52.978;6.310;2022-12-19T16:09:42;11.95;;;10.60;;
54428;SDS011;40337;52.978;6.310;2022-12-19T16:12:11;12.90;;;11.25;;
54428;SDS011;40337;52.978;6.310;2022-12-19T16:14:43;12.03;;;10.80;;
54428;SDS011;40337;52.978;6.310;2022-12-19T16:17:20;13.35;;;11.95;;
54428;SDS011;40337;52.978;6.310;2022-12-19T16:19:47;13.40;;;12.00;;
54428;SDS011;40337;52.978;6.310;2022-12-19T16:22:24;14.52;;;12.02;;
54428;SDS011;40337;52.978;6.310;2022-12-19T16:24:52;13.65;;;12.13;;
54428;SDS011;40337;52.978;6.310;2022-12-19T16:29:54;13.82;;;12.10;;
54428;SDS011;40337;52.978;6.310;2022-12-19T16:32:21;14.10;;;12.27;;
54428;SDS011;40337;52.978;6.310;2022-12-19T16:34:48;14.77;;;12.43;;
54428;SDS011;40337;52.978;6.310;2022-12-19T16:37:14;14.38;;;12.50;;
54428;SDS011;40337;52.978;6.310;2022-12-19T16:39:39;13.75;;;12.13;;
54428;SDS011;40337;52.978;6.310;2022-12-19T16:42:12;14.45;;;12.18;;
54428;SDS011;40337;52.978;6.310;2022-12-19T16:44:40;12.77;;;11.48;;
54428;SDS011;40337;52.978;6.310;2022-12-19T16:47:14;13.02;;;11.63;;
54428;SDS011;40337;52.978;6.310;2022-12-19T16:49:40;14.30;;;11.88;;
54428;SDS011;40337;52.978;6.310;2022-12-19T16:52:06;15.88;;;11.20;;
54428;SDS011;40337;52.978;6.310;2022-12-19T16:54:32;12.57;;;11.27;;
54428;SDS011;40337;52.978;6.310;2022-12-19T16:56:58;12.90;;;11.13;;
54428;SDS011;40337;52.978;6.310;2022-12-19T16:59:30;14.07;;;11.63;;
54428;SDS011;40337;52.978;6.310;2022-12-19T17:01:59;12.52;;;10.65;;
54428;SDS011;40337;52.978;6.310;2022-12-19T17:04:26;14.00;;;10.98;;
54428;SDS011;40337;52.978;6.310;2022-12-19T17:06:53;12.48;;;11.05;;
54428;SDS011;40337;52.978;6.310;2022-12-19T17:09:20;12.63;;;11.07;;